METAR AND TAF INFORMATION
METAR FOR SOCA
ADDS - METARS form results

(0506 UTC 09 August 2020)
Data provider http://aviationweather.gov/metar/data/
 
METAR text: SOCA 090500Z AUTO 00000KT CAVOK 24/24 Q1015 NOSIG
Conditions at: SOCA (CAYENNE/ROCHAMBE, GY) observed 0500 UTC 09 August 2020
Temperature: 24.0°C (75°F)
Dewpoint: 24.0°C (75°F) [RH = 100%]
Pressure (altimeter): 29.97 inches Hg (1015.0 mb)
Winds: calm
Visibility: 6 or more miles (10+ km)
Ceiling: ceiling and visibility are OK
Clouds: unknown
Weather: no significant weather observed at this time

METAR text: SOCA 090430Z AUTO 00000KT CAVOK 24/24 Q1015 NOSIG
Conditions at: SOCA (CAYENNE/ROCHAMBE, GY) observed 0430 UTC 09 August 2020
Temperature: 24.0°C (75°F)
Dewpoint: 24.0°C (75°F) [RH = 100%]
Pressure (altimeter): 29.97 inches Hg (1015.0 mb)
Winds: calm
Visibility: 6 or more miles (10+ km)
Ceiling: ceiling and visibility are OK
Clouds: unknown
Weather: no significant weather observed at this time

Forecast for: SOCA (CAYENNE/ROCHAMBE, GY)
Text: TAF SOCA 082200Z 0900/0924 VRB02KT 9999 SCT028 BKN050
Forecast period: 0000 to 1300 UTC 09 August 2020
Forecast type: FROM: standard forecast or significant change
Winds: variable direction winds at 2 MPH (2 knots; 1.0 m/s)
Visibility: 6 or more miles (10+ km)
Ceiling: 5000 feet AGL
Clouds: scattered clouds at 2800 feet AGL
broken clouds at 5000 feet AGL
Weather: no significant weather forecast for this period
Text: BECMG 0913/0915 08012KT
Forecast period: 1300 UTC 09 August 2020 to 0000 UTC 10 August 2020
Forecast type: BECOMING: Conditions expected to become as follows by 1500 UTC 09 August 2020
Winds: from the E (80 degrees) at 14 MPH (12 knots; 6.2 m/s)
Visibility: 6 or more miles (10+ km)
Ceiling: 5000 feet AGL
Clouds: scattered clouds at 2800 feet AGL
broken clouds at 5000 feet AGL
Weather: no significant weather forecast for this period
Text: TEMPO 0915/0921 3000 SHRA SCT010 BKN015TCU
Forecast period: 1500 to 2100 UTC 09 August 2020
Forecast type: TEMPORARY: The following changes expected for less than half the time period
Visibility: 1.86 miles (2.99 km)
Ceiling: 1500 feet AGL
Clouds: scattered clouds at 1000 feet AGL
broken clouds at 1500 feet AGL
Weather: SHRA  (rain showers)

 AIRPORT MAP

 RUNWAY INFORMATION
Runway 08 Runway length 10486 ft Runway width 148 ft
Runway elevation 18 ft Runway displaced threshold 0 ft Runway heading 65
Runway 26 Runway length 10486 ft Runway width 148 ft
Runway elevation 25 ft Runway displaced threshold 0 ft Runway heading 245

 AIRPORT FREQUENCIES
Type APP Name APP Frequency 119.9 MHZ
Type ATIS Name ATIS Frequency 132.2 MHZ
Type TWR Name TWR Frequency 118.1 MHZ

 AIRPORT NEAR NAVIGATION AIDS
Type VOR-DME Name Cayenne Frequency 115950 KHZ
Type NDB Name Cayenne Frequency 327 KHZ